Time;durP1;ratioP1;P1;durP2;ratioP2;P2;SDS_P1;SDS_P2;PMS_P1;PMS_P2;Temp;Humidity;BMP_temperature;BMP_pressure;BME280_temperature;BME280_humidity;BME280_pressure;Samples;Min_cycle;Max_cycle;Signal;HPM_P1;HPM_P2
2022/05/09 00:01:53;;;;;;;11.68;4.88;;;8.80;99.90;;;;;;5093122;28;20032;-68
2022/05/09 00:04:19;;;;;;;16.23;4.93;;;8.80;99.90;;;;;;5093138;28;20028;-68
2022/05/09 00:06:45;;;;;;;12.75;4.63;;;8.80;99.90;;;;;;5093195;28;20038;-68
2022/05/09 00:09:11;;;;;;;18.10;5.20;;;8.90;99.90;;;;;;5091914;28;20020;-68
2022/05/09 00:11:36;;;;;;;11.82;5.07;;;9.10;99.90;;;;;;5093242;28;20024;-68
2022/05/09 00:14:02;;;;;;;12.38;4.15;;;9.30;99.90;;;;;;5092964;28;20050;-68
2022/05/09 00:16:33;;;;;;;17.20;4.57;;;9.40;99.90;;;;;;5092947;28;20031;-68
2022/05/09 00:18:59;;;;;;;12.30;4.70;;;9.60;99.90;;;;;;5092105;28;20028;-68
2022/05/09 00:21:25;;;;;;;15.18;4.47;;;9.70;99.90;;;;;;5093158;28;20120;-68
2022/05/09 00:23:51;;;;;;;10.98;4.47;;;9.80;99.90;;;;;;5092949;28;20056;-68
2022/05/09 00:26:17;;;;;;;14.45;4.75;;;9.80;99.90;;;;;;5091997;28;20024;-68
2022/05/09 00:28:42;;;;;;;10.77;4.32;;;9.80;99.90;;;;;;5092898;28;20493;-68
2022/05/09 00:31:08;;;;;;;15.57;4.65;;;9.80;99.90;;;;;;5092773;28;20028;-68
2022/05/09 00:33:34;;;;;;;12.32;4.30;;;9.80;99.90;;;;;;5093118;28;20024;-68
2022/05/09 00:36:00;;;;;;;11.48;4.32;;;9.80;99.90;;;;;;5092814;28;20028;-68
2022/05/09 00:38:26;;;;;;;12.70;4.72;;;9.80;99.90;;;;;;5092759;28;20497;-68
2022/05/09 00:43:38;;;;;;;14.15;4.78;;;9.80;99.90;;;;;;5092563;28;20040;-68
2022/05/09 00:46:05;;;;;;;14.48;4.55;;;9.80;99.90;;;;;;5092668;28;20039;-68
2022/05/09 00:48:30;;;;;;;16.92;4.90;;;9.80;99.90;;;;;;5095350;28;20032;-68
2022/05/09 00:50:58;;;;;;;12.73;4.68;;;9.80;99.90;;;;;;5095124;28;20028;-68
2022/05/09 00:53:25;;;;;;;16.17;4.57;;;9.70;99.90;;;;;;5078160;28;20398;-68
2022/05/09 00:55:55;;;;;;;12.85;4.32;;;9.60;99.90;;;;;;5096298;28;20032;-68
2022/05/09 00:58:25;;;;;;;14.93;4.60;;;9.70;99.90;;;;;;5096241;28;20107;-68
2022/05/09 01:00:52;;;;;;;16.20;5.75;;;9.60;99.90;;;;;;5096113;28;20150;-68
2022/05/09 01:03:28;;;;;;;13.73;4.97;;;9.60;99.90;;;;;;5096356;28;20059;-68
2022/05/09 01:05:53;;;;;;;13.02;5.07;;;9.60;99.90;;;;;;5096036;28;20020;-68
2022/05/09 01:08:19;;;;;;;11.63;4.95;;;9.50;99.90;;;;;;5095990;28;20081;-68
2022/05/09 01:10:47;;;;;;;14.38;4.72;;;9.50;99.90;;;;;;5096032;28;20081;-68
2022/05/09 01:13:15;;;;;;;18.52;4.93;;;9.40;99.90;;;;;;5096165;28;20020;-68
2022/05/09 01:15:42;;;;;;;12.52;4.70;;;9.40;99.90;;;;;;5095861;28;20024;-68
2022/05/09 01:18:11;;;;;;;16.23;4.85;;;9.30;99.90;;;;;;5095809;28;20047;-68
2022/05/09 01:20:36;;;;;;;13.40;5.00;;;9.20;99.90;;;;;;5095926;28;20028;-68
2022/05/09 01:23:03;;;;;;;14.85;4.88;;;9.10;99.90;;;;;;5095738;28;20386;-68
2022/05/09 01:25:29;;;;;;;13.82;5.95;;;8.90;99.90;;;;;;5095920;28;20482;-68
2022/05/09 01:27:55;;;;;;;13.93;5.63;;;8.70;99.90;;;;;;5095693;28;20027;-68
2022/05/09 01:30:40;;;;;;;12.30;4.75;;;8.60;99.90;;;;;;5095850;28;20023;-68
2022/05/09 01:33:28;;;;;;;16.48;5.72;;;8.50;99.90;;;;;;5095558;28;20031;-68
2022/05/09 01:36:00;;;;;;;16.23;5.78;;;8.30;99.90;;;;;;5095532;28;20110;-68
2022/05/09 01:38:34;;;;;;;16.80;5.90;;;8.20;99.90;;;;;;5095722;28;20032;-68
2022/05/09 01:41:00;;;;;;;14.30;5.15;;;8.20;99.90;;;;;;5095181;28;20076;-68
2022/05/09 01:46:11;;;;;;;17.48;5.65;;;8.10;99.90;;;;;;5111288;27;20380;-68
2022/05/09 01:51:23;;;;;;;15.38;5.90;;;8.10;99.90;;;;;;5110827;28;20092;-68
2022/05/09 01:53:52;;;;;;;14.45;5.50;;;8.00;99.90;;;;;;5111185;28;20035;-68
2022/05/09 01:56:21;;;;;;;13.85;6.07;;;8.00;99.90;;;;;;5111178;28;20036;-68
2022/05/09 01:58:47;;;;;;;16.10;5.63;;;;;;;;;;5111034;28;20059;-67
2022/05/09 02:01:13;;;;;;;16.13;6.70;;;;;;;;;;5109799;28;20035;-67
2022/05/09 02:03:39;;;;;;;14.00;6.25;;;;;;;;;;5109437;28;20081;-67
2022/05/09 02:06:07;;;;;;;14.52;5.90;;;;;;;;;;5110822;28;20470;-67
2022/05/09 02:08:33;;;;;;;19.42;6.25;;;;;;;;;;5110975;28;20381;-67
2022/05/09 02:10:59;;;;;;;13.65;5.00;;;;;;;;;;5110669;28;20023;-67
2022/05/09 02:13:25;;;;;;;11.80;5.85;;;;;;;;;;5110679;28;20024;-67
2022/05/09 02:15:51;;;;;;;14.07;5.85;;;;;;;;;;5110579;28;20028;-67
2022/05/09 02:18:17;;;;;;;16.35;5.93;;;;;;;;;;5110576;28;20107;-67
2022/05/09 02:20:43;;;;;;;15.35;5.70;;;;;;;;;;5109596;28;20035;-67
2022/05/09 02:23:09;;;;;;;15.48;6.72;;;;;;;;;;5110434;28;20393;-67
2022/05/09 02:25:36;;;;;;;13.90;6.18;;;;;;;;;;5110338;28;20470;-67
2022/05/09 02:28:06;;;;;;;16.45;5.88;;;;;;;;;;5109069;28;20027;-67
2022/05/09 02:30:41;;;;;;;13.73;5.90;;;;;;;;;;5110206;28;20024;-68
2022/05/09 02:33:08;;;;;;;16.17;6.32;;;;;;;;;;5110539;28;20074;-67
2022/05/09 02:35:35;;;;;;;16.77;6.78;;;;;;;;;;5110220;28;20023;-68
2022/05/09 02:38:01;;;;;;;18.63;6.10;;;;;;;;;;5110405;28;20478;-67
2022/05/09 02:40:27;;;;;;;15.43;5.93;;;;;;;;;;5110130;28;20103;-67
2022/05/09 02:42:54;;;;;;;17.23;6.53;;;;;;;;;;5110329;28;20114;-67
2022/05/09 02:45:20;;;;;;;12.93;6.05;;;;;;;;;;5109770;28;20094;-67
2022/05/09 02:47:47;;;;;;;13.55;6.60;;;;;;;;;;5110255;28;20466;-67
2022/05/09 02:50:14;;;;;;;12.45;5.63;;;;;;;;;;5109896;28;20028;-67
2022/05/09 02:52:41;;;;;;;15.70;6.45;;;;;;;;;;5109825;28;20047;-67
2022/05/09 02:55:08;;;;;;;12.93;5.65;;;;;;;;;;5109836;28;20024;-67
2022/05/09 02:57:34;;;;;;;10.52;5.80;;;;;;;;;;5095723;28;20474;-67
2022/05/09 03:00:00;;;;;;;17.00;6.80;;;;;;;;;;5096410;28;20062;-68
2022/05/09 03:02:27;;;;;;;15.82;6.90;;;;;;;;;;5096214;28;20112;-67
2022/05/09 03:04:53;;;;;;;10.85;5.70;;;;;;;;;;5094811;28;20494;-67
2022/05/09 03:07:20;;;;;;;14.85;6.90;;;;;;;;;;5096070;28;20418;-67
2022/05/09 03:09:47;;;;;;;11.88;5.93;;;;;;;;;;5095978;28;20024;-67
2022/05/09 03:12:13;;;;;;;11.90;5.95;;;;;;;;;;5095911;28;20494;-67
2022/05/09 03:14:39;;;;;;;11.68;6.00;;;;;;;;;;5096144;28;20169;-67
2022/05/09 03:17:07;;;;;;;17.58;7.00;;;;;;;;;;5096101;28;20047;-67
2022/05/09 03:19:33;;;;;;;16.33;5.97;;;;;;;;;;5095786;28;20090;-67
2022/05/09 03:21:59;;;;;;;18.73;6.05;;;;;;;;;;5095743;28;20038;-67
2022/05/09 03:24:25;;;;;;;15.55;5.57;;;;;;;;;;5095651;28;20120;-67
2022/05/09 03:26:51;;;;;;;16.40;5.85;;;;;;;;;;5095643;28;20020;-67
2022/05/09 03:29:19;;;;;;;13.95;6.45;;;;;;;;;;5095674;28;20441;-67
2022/05/09 03:31:47;;;;;;;22.15;6.85;;;;;;;;;;5095598;28;20363;-67
2022/05/09 03:34:13;;;;;;;16.80;6.15;;;;;;;;;;5095588;28;20024;-67
2022/05/09 03:36:40;;;;;;;12.70;6.28;;;;;;;;;;5095690;28;20500;-67
2022/05/09 03:39:06;;;;;;;10.95;5.97;;;;;;;;;;5095431;28;20059;-67
2022/05/09 03:41:32;;;;;;;9.35;5.57;;;;;;;;;;5095362;28;20425;-67
2022/05/09 03:43:58;;;;;;;17.02;6.32;;;;;;;;;;5095055;28;20077;-67
2022/05/09 03:46:24;;;;;;;14.20;7.38;;;;;;;;;;5095258;28;20063;-67
2022/05/09 03:48:50;;;;;;;16.38;6.63;;;;;;;;;;5095261;28;20044;-67
2022/05/09 03:51:15;;;;;;;15.55;6.50;;;;;;;;;;5094092;28;20031;-67
2022/05/09 03:53:41;;;;;;;11.82;6.97;;;;;;;;;;5093849;28;20028;-67
2022/05/09 03:56:08;;;;;;;14.27;5.95;;;;;;;;;;5095120;28;20024;-67
2022/05/09 03:58:34;;;;;;;14.20;6.35;;;;;;;;;;5093804;28;20027;-67
2022/05/09 04:01:00;;;;;;;13.50;7.72;;;;;;;;;;5094996;28;20103;-67
2022/05/09 04:03:26;;;;;;;13.07;6.60;;;;;;;;;;5094978;28;20063;-67
2022/05/09 04:05:53;;;;;;;17.75;6.82;;;;;;;;;;5095090;28;20028;-67
2022/05/09 04:08:20;;;;;;;13.75;6.47;;;;;;;;;;5093864;28;20035;-67
2022/05/09 04:10:47;;;;;;;19.02;6.95;;;;;;;;;;5094862;28;20023;-67
2022/05/09 04:13:13;;;;;;;20.13;7.55;;;;;;;;;;5094756;28;20393;-67
2022/05/09 04:18:27;;;;;;;16.50;7.40;;;;;;;;;;5094440;28;20093;-67
2022/05/09 04:20:53;;;;;;;13.70;6.75;;;;;;;;;;5094650;28;20016;-68
2022/05/09 04:23:19;;;;;;;18.45;7.22;;;;;;;;;;5094582;28;20051;-67
2022/05/09 04:25:45;;;;;;;14.00;6.75;;;;;;;;;;5094742;28;20060;-67
2022/05/09 04:28:12;;;;;;;15.27;7.15;;;;;;;;;;5094435;28;20093;-67
2022/05/09 04:30:39;;;;;;;17.45;6.90;;;;;;;;;;5093217;28;20474;-67
2022/05/09 04:33:05;;;;;;;13.55;7.32;;;;;;;;;;5094413;28;20031;-67
2022/05/09 04:35:32;;;;;;;17.00;7.32;;;;;;;;;;5094343;28;20158;-67
2022/05/09 04:37:59;;;;;;;17.88;6.97;;;;;;;;;;5094513;28;20028;-67
2022/05/09 04:40:26;;;;;;;15.15;6.68;;;;;;;;;;5094289;28;20106;-67
2022/05/09 04:42:52;;;;;;;18.05;7.55;;;;;;;;;;5094194;28;20028;-67
2022/05/09 04:45:18;;;;;;;21.58;7.20;;;;;;;;;;5093930;28;20048;-67
2022/05/09 04:47:45;;;;;;;15.40;6.55;;;;;;;;;;5094380;28;20428;-67
2022/05/09 04:50:14;;;;;;;15.18;6.03;;;8.90;99.90;;;;;;5092870;28;20016;-68
2022/05/09 04:52:41;;;;;;;21.20;6.45;;;9.10;99.90;;;;;;5094221;28;20089;-68
2022/05/09 04:55:07;;;;;;;16.15;6.20;;;9.60;99.90;;;;;;5092610;28;20020;-68
2022/05/09 04:57:33;;;;;;;11.40;5.97;;;9.70;99.90;;;;;;5094174;28;20474;-68
2022/05/09 04:59:59;;;;;;;15.98;6.45;;;9.70;99.90;;;;;;5094093;28;20028;-67
2022/05/09 05:02:25;;;;;;;15.90;6.75;;;9.60;99.90;;;;;;5092687;28;20042;-68
2022/05/09 05:04:50;;;;;;;20.50;7.05;;;9.60;99.90;;;;;;5093935;28;20067;-68
2022/05/09 05:07:16;;;;;;;12.82;6.38;;;9.50;99.90;;;;;;5093753;28;20024;-68
2022/05/09 05:09:42;;;;;;;12.15;6.00;;;9.60;99.90;;;;;;5093622;28;20028;-68
2022/05/09 05:12:08;;;;;;;12.63;6.35;;;9.70;99.90;;;;;;5092509;28;20032;-68
2022/05/09 05:14:33;;;;;;;16.75;7.15;;;9.80;99.90;;;;;;5093695;28;20071;-67
2022/05/09 05:16:59;;;;;;;14.13;6.85;;;9.90;99.90;;;;;;5093539;28;20051;-68
2022/05/09 05:19:24;;;;;;;21.23;7.03;;;9.80;99.90;;;;;;5093475;28;20051;-68
2022/05/09 05:21:50;;;;;;;24.02;7.40;;;10.00;99.90;;;;;;5092426;28;20446;-68
2022/05/09 05:24:16;;;;;;;17.23;7.05;;;10.00;99.90;;;;;;5093513;28;20032;-68
2022/05/09 05:26:41;;;;;;;17.13;7.28;;;10.20;99.90;;;;;;5093427;28;20020;-68
2022/05/09 05:29:07;;;;;;;13.35;7.00;;;10.30;99.90;;;;;;5093605;28;20020;-68
2022/05/09 05:31:32;;;;;;;21.27;7.32;;;10.60;99.90;;;;;;5093377;28;20030;-68
2022/05/09 05:33:58;;;;;;;19.38;6.88;;;10.90;99.90;;;;;;5093588;28;20081;-68
2022/05/09 05:36:23;;;;;;;13.30;6.18;;;11.20;99.90;;;;;;5093274;28;20078;-68
2022/05/09 05:38:51;;;;;;;13.40;5.95;;;11.90;99.90;;;;;;5093230;28;20024;-69
2022/05/09 05:41:19;;;;;;;17.00;5.80;;;13.50;99.90;;;;;;5075669;28;20474;-69
2022/05/09 05:43:45;;;;;;;11.82;5.00;;;16.60;99.90;;;;;;5093286;28;20049;-69
2022/05/09 05:46:11;;;;;;;14.27;5.03;;;16.90;99.90;;;;;;5093122;28;20119;-69
2022/05/09 05:48:37;;;;;;;17.88;5.70;;;18.20;98.10;;;;;;5093481;28;20024;-69
2022/05/09 05:51:02;;;;;;;11.75;5.18;;;18.50;93.00;;;;;;5093171;28;20035;-69
2022/05/09 05:53:28;;;;;;;12.27;5.47;;;19.00;88.10;;;;;;5093427;28;20032;-69
2022/05/09 05:55:54;;;;;;;11.23;4.45;;;19.30;85.10;;;;;;5092913;28;20027;-69
2022/05/09 05:58:22;;;;;;;16.52;4.85;;;18.80;83.30;;;;;;5093300;28;20035;-69
2022/05/09 06:00:48;;;;;;;14.10;5.50;;;18.70;84.10;;;;;;5093187;28;20050;-69
2022/05/09 06:03:15;;;;;;;8.57;4.43;;;18.70;83.30;;;;;;5093309;28;20024;-68
2022/05/09 06:05:41;;;;;;;12.82;4.65;;;19.60;81.90;;;;;;5092943;28;20016;-68
2022/05/09 06:08:07;;;;;;;8.40;4.55;;;20.40;78.50;;;;;;5092705;28;20110;-68
2022/05/09 06:10:33;;;;;;;10.55;5.13;;;20.90;76.90;;;;;;5092698;28;20060;-68
2022/05/09 06:13:04;;;;;;;10.43;4.95;;;20.60;74.60;;;;;;5093169;28;20059;-68
2022/05/09 06:15:32;;;;;;;12.27;5.00;;;20.00;75.70;;;;;;5091548;28;20110;-69
2022/05/09 06:17:59;;;;;;;11.25;4.60;;;20.50;76.20;;;;;;5093086;28;20024;-69
2022/05/09 06:20:26;;;;;;;11.68;5.00;;;20.10;75.10;;;;;;5092939;28;20078;-69
2022/05/09 06:22:54;;;;;;;9.63;4.65;;;19.90;78.90;;;;;;5092994;28;20032;-69
2022/05/09 06:25:21;;;;;;;15.68;5.03;;;20.50;79.30;;;;;;5092954;28;20024;-69
2022/05/09 06:27:47;;;;;;;9.88;4.65;;;21.20;77.50;;;;;;5091360;28;20012;-66
2022/05/09 06:30:14;;;;;;;9.82;4.78;;;21.60;72.50;;;;;;5087614;28;20386;-65
2022/05/09 06:32:40;;;;;;;12.57;5.43;;;21.90;70.80;;;;;;5095638;28;20507;-66
2022/05/09 06:35:09;;;;;;;10.95;5.28;;;22.70;69.10;;;;;;5096537;28;20058;-66
2022/05/09 06:37:35;;;;;;;11.65;5.07;;;22.60;67.60;;;;;;5096612;28;20524;-68
2022/05/09 06:40:02;;;;;;;12.05;4.85;;;21.40;70.50;;;;;;5096017;28;20019;-68
2022/05/09 06:42:28;;;;;;;13.73;5.10;;;21.60;69.00;;;;;;5096169;28;20028;-68
2022/05/09 06:44:54;;;;;;;10.48;4.82;;;22.90;67.80;;;;;;5094414;28;20036;-68
2022/05/09 06:47:20;;;;;;;12.23;4.93;;;22.80;63.70;;;;;;5095005;28;20027;-68
2022/05/09 06:49:46;;;;;;;12.50;4.95;;;23.90;61.60;;;;;;5095582;28;20020;-68
2022/05/09 06:52:11;;;;;;;12.55;5.00;;;23.20;61.70;;;;;;5096163;28;20099;-67
2022/05/09 06:54:37;;;;;;;12.73;4.90;;;22.40;63.10;;;;;;5095407;28;20028;-69
2022/05/09 06:57:04;;;;;;;12.13;4.75;;;21.80;65.70;;;;;;5095737;28;20085;-68
2022/05/09 06:59:32;;;;;;;16.05;5.75;;;22.00;64.20;;;;;;5083329;28;20016;-73
2022/05/09 07:01:57;;;;;;;10.48;4.28;;;22.80;65.80;;;;;;5089800;28;20498;-68
2022/05/09 07:04:23;;;;;;;15.30;5.75;;;23.20;61.60;;;;;;5093103;28;20059;-69
2022/05/09 07:06:49;;;;;;;9.85;4.95;;;23.10;60.40;;;;;;5082871;28;20032;-68
2022/05/09 07:09:15;;;;;;;13.38;5.05;;;22.70;61.90;;;;;;5093511;28;20020;-69
2022/05/09 07:11:41;;;;;;;9.13;4.82;;;22.50;62.70;;;;;;5094251;28;20027;-68
2022/05/09 07:14:07;;;;;;;12.23;4.57;;;22.60;66.40;;;;;;5085047;28;20033;-67
2022/05/09 07:16:33;;;;;;;7.50;4.60;;;24.00;63.40;;;;;;5080820;28;20493;-70
2022/05/09 07:18:59;;;;;;;8.25;4.55;;;25.10;58.40;;;;;;5081080;28;20029;-68
2022/05/09 07:21:25;;;;;;;10.05;4.60;;;24.20;57.00;;;;;;5075653;28;20043;-68
2022/05/09 07:23:51;;;;;;;10.15;5.00;;;23.90;57.90;;;;;;5082977;28;20016;-68
2022/05/09 07:26:17;;;;;;;9.75;4.60;;;23.30;62.10;;;;;;5090921;28;20028;-68
2022/05/09 07:28:42;;;;;;;6.35;3.78;;;22.90;62.10;;;;;;5089011;28;20024;-68
2022/05/09 07:31:09;;;;;;;9.15;4.45;;;23.50;61.20;;;;;;5093697;28;20036;-69
2022/05/09 07:33:35;;;;;;;10.05;4.68;;;23.60;59.60;;;;;;5080307;28;20493;-69
2022/05/09 07:36:08;;;;;;;7.13;4.18;;;23.40;60.30;;;;;;5093441;28;20066;-69
2022/05/09 07:38:34;;;;;;;12.18;4.78;;;23.40;60.20;;;;;;5092213;28;20047;-68
2022/05/09 07:40:59;;;;;;;8.70;4.28;;;23.20;61.60;;;;;;5092796;28;20506;-69
2022/05/09 07:43:27;;;;;;;8.02;4.07;;;23.40;60.30;;;;;;5076624;28;20413;-69
2022/05/09 07:45:54;;;;;;;10.50;4.68;;;23.50;59.80;;;;;;5093678;28;20078;-70
2022/05/09 07:48:22;;;;;;;10.30;4.35;;;23.30;60.00;;;;;;5093706;28;20017;-70
2022/05/09 07:50:49;;;;;;;8.38;4.13;;;23.60;64.00;;;;;;5092689;28;20067;-69
2022/05/09 07:53:19;;;;;;;6.60;4.00;;;24.80;57.60;;;;;;5093253;28;20024;-70
2022/05/09 07:55:45;;;;;;;10.20;4.32;;;25.10;57.40;;;;;;5091056;28;20532;-70
2022/05/09 07:58:11;;;;;;;9.07;3.92;;;24.90;57.30;;;;;;5094714;28;20051;-71
2022/05/09 08:00:37;;;;;;;6.95;3.97;;;25.70;54.20;;;;;;5091637;28;20094;-69
2022/05/09 08:03:05;;;;;;;10.32;4.43;;;25.10;55.60;;;;;;5092968;28;20034;-70
2022/05/09 08:05:31;;;;;;;7.47;4.18;;;26.10;57.20;;;;;;5092980;28;20474;-69
2022/05/09 08:07:57;;;;;;;7.65;3.95;;;25.50;55.60;;;;;;5092222;28;20016;-70
2022/05/09 08:10:23;;;;;;;9.38;4.13;;;25.30;56.60;;;;;;5094310;28;20050;-70
2022/05/09 08:12:49;;;;;;;9.45;4.10;;;24.80;56.10;;;;;;5084429;28;20025;-70
2022/05/09 08:15:18;;;;;;;7.00;4.30;;;26.40;56.30;;;;;;5088569;28;20102;-69
2022/05/09 08:17:47;;;;;;;8.63;4.30;;;26.70;54.70;;;;;;5091955;28;20024;-68
2022/05/09 08:20:13;;;;;;;7.72;4.30;;;25.90;54.00;;;;;;5087249;28;20066;-69
2022/05/09 08:22:40;;;;;;;9.65;4.10;;;25.10;56.20;;;;;;5082044;28;20379;-71
2022/05/09 08:25:07;;;;;;;7.25;3.88;;;25.30;57.10;;;;;;5092337;28;20035;-70
2022/05/09 08:27:33;;;;;;;7.47;4.28;;;26.60;57.70;;;;;;5092534;28;20020;-68
2022/05/09 08:29:59;;;;;;;9.55;4.53;;;26.80;54.10;;;;;;5090606;28;20455;-66
2022/05/09 08:32:26;;;;;;;7.55;4.50;;;25.80;55.40;;;;;;5088702;28;20028;-66
2022/05/09 08:34:52;;;;;;;11.20;4.53;;;24.80;56.20;;;;;;5093767;28;20035;-65
2022/05/09 08:37:18;;;;;;;14.15;4.65;;;26.00;58.10;;;;;;5093941;28;20024;-65
2022/05/09 08:39:45;;;;;;;9.27;4.78;;;25.20;56.40;;;;;;5092241;28;20124;-65
2022/05/09 08:42:15;;;;;;;10.02;4.47;;;26.10;57.70;;;;;;5092154;28;20024;-66
2022/05/09 08:45:04;;;;;;;8.77;4.45;;;26.40;54.70;;;;;;5092696;28;20075;-67
2022/05/09 08:48:01;;;;;;;8.77;4.63;;;26.40;56.70;;;;;;5082684;28;20028;-67
2022/05/09 08:50:49;;;;;;;7.78;4.60;;;25.90;55.80;;;;;;5083189;28;20038;-67
2022/05/09 08:53:22;;;;;;;11.10;4.78;;;26.50;57.30;;;;;;5093166;28;20071;-67
2022/05/09 08:55:48;;;;;;;7.70;4.72;;;25.50;57.90;;;;;;5072856;28;20039;-67
2022/05/09 08:58:26;;;;;;;11.75;4.90;;;25.80;57.60;;;;;;5073579;28;20062;-67
2022/05/09 09:00:54;;;;;;;9.35;4.60;;;25.70;57.70;;;;;;5081947;28;20085;-69
2022/05/09 09:03:38;;;;;;;12.02;4.80;;;26.20;57.90;;;;;;5089496;28;20031;-70
2022/05/09 09:06:12;;;;;;;8.80;4.90;;;26.00;59.10;;;;;;5087458;28;20454;-71
2022/05/09 09:09:03;;;;;;;10.43;5.13;;;27.50;55.10;;;;;;5087433;28;20058;-70
2022/05/09 09:11:58;;;;;;;11.07;4.95;;;26.40;56.70;;;;;;5064195;28;20494;-70
2022/05/09 09:15:03;;;;;;;9.52;5.20;;;26.50;57.80;;;;;;5084651;28;20082;-70
2022/05/09 09:17:41;;;;;;;11.20;5.50;;;26.00;58.80;;;;;;5088688;28;20050;-70
2022/05/09 09:20:20;;;;;;;7.88;4.40;;;26.90;57.00;;;;;;5093924;28;20478;-70
2022/05/09 09:26:01;;;;;;;7.20;4.75;;;28.60;54.00;;;;;;5070328;28;20383;-70
2022/05/09 09:28:36;;;;;;;8.38;4.68;;;28.10;54.20;;;;;;5069945;28;20499;-70
2022/05/09 09:31:09;;;;;;;7.78;4.80;;;27.70;54.80;;;;;;5069996;28;20111;-70
2022/05/09 09:33:37;;;;;;;6.47;4.40;;;26.90;57.30;;;;;;5069786;28;20390;-70
2022/05/09 09:36:08;;;;;;;9.18;5.47;;;27.60;60.40;;;;;;5068908;28;20032;-70
2022/05/09 09:38:57;;;;;;;10.15;6.28;;;26.70;57.70;;;;;;5069149;28;20079;-70
2022/05/09 09:41:33;;;;;;;9.75;7.28;;;27.10;58.20;;;;;;5054679;28;20486;-70
2022/05/09 09:44:08;;;;;;;10.88;6.03;;;28.10;54.60;;;;;;5069630;28;20055;-70
2022/05/09 09:46:34;;;;;;;10.40;6.05;;;28.60;54.10;;;;;;5068207;28;20021;-70
2022/05/09 09:49:07;;;;;;;7.10;4.43;;;28.90;53.40;;;;;;5068259;28;20075;-70
2022/05/09 09:51:45;;;;;;;9.05;4.30;;;29.00;52.00;;;;;;5068652;28;20036;-70
2022/05/09 09:54:11;;;;;;;8.15;5.72;;;28.90;51.90;;;;;;5060897;28;20068;-70
2022/05/09 09:56:36;;;;;;;7.72;4.55;;;28.50;54.10;;;;;;5065819;28;20028;-70
2022/05/09 10:02:02;;;;;;;9.20;4.47;;;28.00;54.50;;;;;;5090249;28;20402;-70
2022/05/09 10:04:28;;;;;;;8.70;3.85;;;28.00;52.90;;;;;;5088688;28;20021;-69
2022/05/09 10:07:01;;;;;;;7.75;4.55;;;27.90;55.40;;;;;;5071546;28;20521;-70
2022/05/09 10:09:29;;;;;;;7.43;4.33;;;28.20;55.60;;;;;;5088818;28;20024;-70
2022/05/09 10:12:15;;;;;;;6.88;4.35;;;28.40;53.70;;;;;;5084192;28;20494;-70
2022/05/09 10:14:41;;;;;;;6.97;4.75;;;28.20;56.50;;;;;;5078684;28;20490;-69
2022/05/09 10:17:15;;;;;;;5.70;4.47;;;28.30;56.40;;;;;;5089869;28;20063;-70
2022/05/09 10:19:41;;;;;;;11.15;4.82;;;28.40;53.50;;;;;;5089699;28;20087;-69
2022/05/09 10:25:22;;;;;;;8.45;4.20;;;27.40;54.20;;;;;;5089125;28;20080;-69
2022/05/09 10:28:18;;;;;;;9.68;4.57;;;26.90;56.30;;;;;;5097410;28;20032;-69
2022/05/09 10:30:47;;;;;;;8.73;3.55;;;27.40;59.20;;;;;;5092217;28;20138;-70
2022/05/09 10:33:37;;;;;;;6.78;4.05;;;28.10;56.10;;;;;;5091198;28;20059;-69
2022/05/09 10:36:08;;;;;;;6.13;4.35;;;28.40;54.10;;;;;;5084030;28;20038;-69
2022/05/09 10:38:42;;;;;;;5.60;3.92;;;28.30;55.30;;;;;;5087245;28;20081;-70
2022/05/09 10:41:21;;;;;;;7.50;3.70;;;28.10;54.80;;;;;;5086712;28;20494;-69
2022/05/09 10:44:11;;;;;;;7.18;3.95;;;27.30;57.90;;;;;;5087913;28;20407;-69
2022/05/09 10:46:48;;;;;;;8.88;5.05;;;27.40;56.20;;;;;;5075199;28;20374;-69
2022/05/09 10:49:26;;;;;;;6.53;4.05;;;26.80;56.40;;;;;;5087960;28;20111;-69
2022/05/09 10:52:16;;;;;;;6.13;4.13;;;26.40;58.70;;;;;;5088167;28;20039;-69
2022/05/09 10:54:50;;;;;;;6.80;3.83;;;26.10;58.90;;;;;;5085243;28;20031;-69
2022/05/09 10:57:24;;;;;;;6.72;4.63;;;26.00;58.80;;;;;;5075308;28;20055;-70
2022/05/09 10:59:53;;;;;;;8.00;5.07;;;26.10;59.40;;;;;;5074292;28;20040;-69
2022/05/09 11:02:41;;;;;;;8.73;4.70;;;25.50;60.90;;;;;;5085654;28;20548;-69
2022/05/09 11:05:07;;;;;;;8.10;4.53;;;25.50;59.30;;;;;;5083846;28;20053;-68
2022/05/09 11:07:47;;;;;;;9.73;4.40;;;24.80;62.10;;;;;;5068912;28;20020;-68
2022/05/09 11:10:39;;;;;;;8.60;4.53;;;25.10;63.10;;;;;;5074423;28;20024;-68
2022/05/09 11:13:22;;;;;;;7.13;4.40;;;25.50;60.10;;;;;;5074566;28;20115;-68
2022/05/09 11:16:13;;;;;;;10.02;4.65;;;25.20;61.60;;;;;;5073739;28;20086;-68
2022/05/09 11:19:01;;;;;;;7.10;4.30;;;24.70;62.00;;;;;;5052253;28;20501;-67
2022/05/09 11:21:49;;;;;;;9.73;4.68;;;25.20;62.30;;;;;;5054126;28;20081;-68
2022/05/09 11:24:45;;;;;;;7.35;4.93;;;24.70;64.20;;;;;;5066783;28;20467;-68
2022/05/09 11:27:44;;;;;;;8.40;5.22;;;24.60;65.50;;;;;;5074877;28;20544;-68
2022/05/09 11:30:34;;;;;;;8.90;5.22;;;24.30;63.30;;;;;;5073230;28;20619;-67
2022/05/09 11:33:23;;;;;;;10.23;5.00;;;24.40;64.70;;;;;;5064870;28;20112;-67
2022/05/09 11:35:55;;;;;;;11.30;5.03;;;24.90;65.50;;;;;;5071470;28;20402;-67
2022/05/09 11:38:49;;;;;;;11.07;4.82;;;24.90;64.80;;;;;;5073550;28;20021;-67
2022/05/09 11:41:55;;;;;;;6.93;4.45;;;24.90;65.90;;;;;;5073501;28;20032;-67
2022/05/09 11:44:39;;;;;;;9.43;4.95;;;25.60;66.00;;;;;;5071260;28;20021;-67
2022/05/09 11:47:22;;;;;;;10.73;4.90;;;25.60;62.90;;;;;;5074747;28;20047;-69
2022/05/09 11:50:04;;;;;;;7.68;4.70;;;25.60;62.70;;;;;;5070914;28;20029;-67
2022/05/09 11:52:38;;;;;;;9.07;4.25;;;25.20;63.50;;;;;;5080263;28;20019;-69
2022/05/09 11:55:10;;;;;;;7.65;4.78;;;25.80;66.90;;;;;;5076412;28;20039;-68
2022/05/09 11:57:39;;;;;;;8.10;5.32;;;25.60;63.70;;;;;;5073218;28;20539;-66
2022/05/09 12:00:10;;;;;;;12.68;4.93;;;25.70;64.20;;;;;;5064025;28;20075;-68
2022/05/09 12:08:16;;;;;;;6.10;4.63;;;25.30;62.90;;;;;;5107084;27;20327;-68
2022/05/09 12:10:44;;;;;;;7.78;4.82;;;25.70;65.20;;;;;;5107582;28;20032;-67
2022/05/09 12:13:15;;;;;;;8.18;5.57;;;25.40;63.70;;;;;;5109556;28;20036;-68
2022/05/09 12:15:48;;;;;;;9.70;5.25;;;25.30;65.50;;;;;;5099950;28;20440;-68
2022/05/09 12:23:44;;;;;;;12.25;5.53;;;25.00;63.00;;;;;;5130248;27;20128;-66
2022/05/09 12:26:28;;;;;;;11.02;5.72;;;24.70;64.50;;;;;;5128795;28;20016;-67
2022/05/09 12:32:00;;;;;;;8.48;5.10;;;24.90;65.00;;;;;;5110216;27;20917;-68
2022/05/09 12:34:38;;;;;;;7.45;4.93;;;25.10;66.20;;;;;;5103381;28;20089;-68
2022/05/09 12:37:04;;;;;;;7.82;5.00;;;25.10;67.00;;;;;;5105278;28;20030;-68
2022/05/09 12:39:36;;;;;;;8.93;5.50;;;25.50;65.40;;;;;;5110665;28;20031;-68
2022/05/09 12:42:11;;;;;;;8.73;5.20;;;25.40;63.60;;;;;;5109638;28;20478;-68
2022/05/09 12:47:23;;;;;;;9.18;5.47;;;25.10;64.90;;;;;;5069092;28;20932;-68
2022/05/09 12:49:57;;;;;;;8.00;5.43;;;24.90;66.60;;;;;;5041068;28;20476;-68
2022/05/09 12:52:29;;;;;;;8.60;5.63;;;25.00;66.40;;;;;;5048880;28;20106;-68
2022/05/09 12:57:43;;;;;;;8.40;5.68;;;24.60;67.90;;;;;;5051621;28;20039;-67
2022/05/09 13:00:12;;;;;;;9.18;5.30;;;24.60;67.00;;;;;;5047476;28;20116;-68
2022/05/09 13:02:39;;;;;;;9.48;5.60;;;24.70;67.80;;;;;;5050988;28;20047;-68
2022/05/09 13:05:05;;;;;;;7.40;4.97;;;24.60;68.30;;;;;;5049921;28;20033;-67
2022/05/09 13:07:31;;;;;;;7.90;5.35;;;25.10;70.60;;;;;;5044510;28;20028;-67
2022/05/09 13:09:58;;;;;;;12.13;5.70;;;25.50;69.00;;;;;;5059616;28;20041;-67
2022/05/09 13:12:36;;;;;;;9.93;5.38;;;25.40;68.40;;;;;;5042754;28;20507;-68
2022/05/09 13:15:13;;;;;;;9.05;5.25;;;25.40;68.30;;;;;;5073087;28;20029;-67
2022/05/09 13:17:46;;;;;;;9.25;5.30;;;25.30;65.20;;;;;;5046641;28;20025;-67
2022/05/09 13:20:16;;;;;;;8.63;4.90;;;25.20;65.70;;;;;;5049920;28;20030;-67
2022/05/09 13:22:55;;;;;;;6.78;5.35;;;25.40;67.60;;;;;;5043218;28;20133;-68
2022/05/09 13:25:46;;;;;;;9.43;5.00;;;25.80;69.50;;;;;;5040681;28;20037;-68
2022/05/09 13:28:17;;;;;;;8.07;4.95;;;26.00;65.20;;;;;;5048002;28;20509;-68
2022/05/09 13:30:53;;;;;;;9.25;4.88;;;25.70;66.90;;;;;;5055934;28;20132;-68
2022/05/09 13:33:23;;;;;;;5.30;4.40;;;25.30;64.80;;;;;;5055332;28;20028;-68
2022/05/09 13:35:51;;;;;;;9.05;5.28;;;25.40;65.10;;;;;;5064686;28;20032;-68
2022/05/09 13:38:19;;;;;;;7.60;4.93;;;24.80;65.40;;;;;;5046822;28;20182;-67
2022/05/09 13:40:48;;;;;;;7.03;5.78;;;24.80;67.20;;;;;;5052090;28;20021;-67
2022/05/09 13:43:20;;;;;;;10.40;4.95;;;25.20;64.90;;;;;;5062014;28;20091;-68
2022/05/09 13:45:46;;;;;;;7.43;4.85;;;25.00;65.60;;;;;;5065678;28;20041;-69
2022/05/09 13:48:21;;;;;;;7.82;4.40;;;25.10;64.30;;;;;;5047690;28;20079;-68
2022/05/09 13:50:50;;;;;;;10.10;4.20;;;25.20;65.40;;;;;;5029421;28;20364;-67
2022/05/09 13:53:24;;;;;;;9.60;4.72;;;25.00;64.70;;;;;;5050965;28;20104;-67
2022/05/09 13:55:50;;;;;;;10.32;5.05;;;24.80;66.60;;;;;;5040788;28;20029;-68
2022/05/09 13:58:21;;;;;;;7.80;4.65;;;24.70;67.20;;;;;;5035283;28;20033;-67
2022/05/09 14:00:50;;;;;;;8.95;4.80;;;25.20;65.70;;;;;;5038416;28;20086;-67